sensor_id;sensor_type;location;lat;lon;timestamp;pressure;altitude;pressure_sealevel;temperature
82778;BMP280;72510;45.128;20.734;2024-02-14T00:08:50;100729.88;;;5.87
82778;BMP280;72510;45.128;20.734;2024-02-14T00:18:51;100755.47;;;5.74
82778;BMP280;72510;45.128;20.734;2024-02-14T00:28:52;100763.97;;;5.65
82778;BMP280;72510;45.128;20.734;2024-02-14T00:38:53;100772.38;;;5.60
82778;BMP280;72510;45.128;20.734;2024-02-14T00:48:58;100773.72;;;5.32
82778;BMP280;72510;45.128;20.734;2024-02-14T00:59:01;100787.84;;;5.02
82778;BMP280;72510;45.128;20.734;2024-02-14T01:09:02;100790.69;;;4.91
82778;BMP280;72510;45.128;20.734;2024-02-14T01:19:04;100790.69;;;4.91
82778;BMP280;72510;45.128;20.734;2024-02-14T01:29:05;100793.41;;;4.87
82778;BMP280;72510;45.128;20.734;2024-02-14T01:39:07;100803.00;;;4.77
82778;BMP280;72510;45.128;20.734;2024-02-14T01:49:13;100813.50;;;4.57
82778;BMP280;72510;45.128;20.734;2024-02-14T01:59:16;100822.97;;;4.28
82778;BMP280;72510;45.128;20.734;2024-02-14T02:09:17;100821.84;;;4.02
82778;BMP280;72510;45.128;20.734;2024-02-14T02:19:22;100832.88;;;3.93
82778;BMP280;72510;45.128;20.734;2024-02-14T02:29:23;100842.75;;;4.16
82778;BMP280;72510;45.128;20.734;2024-02-14T02:39:25;100836.69;;;4.19
82778;BMP280;72510;45.128;20.734;2024-02-14T02:49:27;100852.25;;;4.10
82778;BMP280;72510;45.128;20.734;2024-02-14T02:59:32;100872.31;;;4.00
82778;BMP280;72510;45.128;20.734;2024-02-14T03:09:37;100889.09;;;3.79
82778;BMP280;72510;45.128;20.734;2024-02-14T03:19:40;100898.38;;;3.56
82778;BMP280;72510;45.128;20.734;2024-02-14T03:29:41;100903.72;;;3.49
82778;BMP280;72510;45.128;20.734;2024-02-14T03:39:44;100916.00;;;3.25
82778;BMP280;72510;45.128;20.734;2024-02-14T03:49:46;100937.06;;;3.21
82778;BMP280;72510;45.128;20.734;2024-02-14T03:59:47;100941.97;;;3.19
82778;BMP280;72510;45.128;20.734;2024-02-14T04:09:49;100960.78;;;3.18
82778;BMP280;72510;45.128;20.734;2024-02-14T04:19:51;100977.69;;;3.20
82778;BMP280;72510;45.128;20.734;2024-02-14T04:29:52;100976.84;;;3.31
82778;BMP280;72510;45.128;20.734;2024-02-14T04:39:54;100988.00;;;3.49
82778;BMP280;72510;45.128;20.734;2024-02-14T04:49:56;100993.78;;;3.75
82778;BMP280;72510;45.128;20.734;2024-02-14T04:59:57;101004.31;;;3.75
82778;BMP280;72510;45.128;20.734;2024-02-14T05:09:59;101005.31;;;3.43
82778;BMP280;72510;45.128;20.734;2024-02-14T05:20:00;101025.84;;;3.10
82778;BMP280;72510;45.128;20.734;2024-02-14T05:30:02;101031.66;;;2.83
82778;BMP280;72510;45.128;20.734;2024-02-14T05:40:07;101044.09;;;2.72
82778;BMP280;72510;45.128;20.734;2024-02-14T05:50:08;101059.88;;;2.69
82778;BMP280;72510;45.128;20.734;2024-02-14T06:00:10;101063.59;;;2.75
82778;BMP280;72510;45.128;20.734;2024-02-14T06:10:13;101065.09;;;2.79
82778;BMP280;72510;45.128;20.734;2024-02-14T06:20:14;101074.06;;;2.93
82778;BMP280;72510;45.128;20.734;2024-02-14T06:30:15;101073.16;;;3.21
82778;BMP280;72510;45.128;20.734;2024-02-14T06:40:22;101092.97;;;3.47
82778;BMP280;72510;45.128;20.734;2024-02-14T06:50:23;101103.69;;;3.74
82778;BMP280;72510;45.128;20.734;2024-02-14T07:00:26;101103.38;;;4.10
82778;BMP280;72510;45.128;20.734;2024-02-14T07:10:29;101115.78;;;4.51
82778;BMP280;72510;45.128;20.734;2024-02-14T07:20:36;101122.50;;;5.72
82778;BMP280;72510;45.128;20.734;2024-02-14T07:30:37;101123.16;;;5.76
82778;BMP280;72510;45.128;20.734;2024-02-14T07:40:38;101135.50;;;6.06
82778;BMP280;72510;45.128;20.734;2024-02-14T07:50:40;101129.97;;;6.41
82778;BMP280;72510;45.128;20.734;2024-02-14T08:00:41;101140.34;;;6.71
82778;BMP280;72510;45.128;20.734;2024-02-14T08:10:46;101151.84;;;7.01
82778;BMP280;72510;45.128;20.734;2024-02-14T08:20:51;101156.78;;;7.36
82778;BMP280;72510;45.128;20.734;2024-02-14T08:30:53;101150.53;;;7.75
82778;BMP280;72510;45.128;20.734;2024-02-14T08:40:56;101147.75;;;7.95
82778;BMP280;72510;45.128;20.734;2024-02-14T08:50:59;101148.41;;;8.28
82778;BMP280;72510;45.128;20.734;2024-02-14T09:01:01;101153.31;;;8.43
82778;BMP280;72510;45.128;20.734;2024-02-14T09:11:03;101151.03;;;8.70
82778;BMP280;72510;45.128;20.734;2024-02-14T09:21:04;101163.47;;;8.99
82778;BMP280;72510;45.128;20.734;2024-02-14T09:31:06;101157.44;;;9.11
82778;BMP280;72510;45.128;20.734;2024-02-14T09:41:21;101160.59;;;9.67
82778;BMP280;72510;45.128;20.734;2024-02-14T09:51:23;101154.03;;;9.93
82778;BMP280;72510;45.128;20.734;2024-02-14T10:01:26;101146.28;;;10.08
82778;BMP280;72510;45.128;20.734;2024-02-14T10:11:33;101148.69;;;10.47
82778;BMP280;72510;45.128;20.734;2024-02-14T10:21:34;101143.72;;;10.58
82778;BMP280;72510;45.128;20.734;2024-02-14T10:31:35;101144.56;;;10.86
82778;BMP280;72510;45.128;20.734;2024-02-14T10:41:39;101144.13;;;10.97
82778;BMP280;72510;45.128;20.734;2024-02-14T10:51:40;101135.59;;;11.39
82778;BMP280;72510;45.128;20.734;2024-02-14T11:01:44;101134.81;;;12.03
82778;BMP280;72510;45.128;20.734;2024-02-14T11:11:46;101118.44;;;12.53
82778;BMP280;72510;45.128;20.734;2024-02-14T11:21:51;101122.78;;;13.67
82778;BMP280;72510;45.128;20.734;2024-02-14T11:32:00;101123.13;;;13.45
82778;BMP280;72510;45.128;20.734;2024-02-14T11:42:02;101120.94;;;14.59
82778;BMP280;72510;45.128;20.734;2024-02-14T11:52:04;101117.72;;;14.95
82778;BMP280;72510;45.128;20.734;2024-02-14T12:02:05;101113.81;;;14.00
82778;BMP280;72510;45.128;20.734;2024-02-14T12:12:07;101125.88;;;15.59
82778;BMP280;72510;45.128;20.734;2024-02-14T12:22:09;101119.44;;;14.02
82778;BMP280;72510;45.128;20.734;2024-02-14T12:32:18;101120.63;;;15.76
82778;BMP280;72510;45.128;20.734;2024-02-14T12:42:20;101126.19;;;15.40
82778;BMP280;72510;45.128;20.734;2024-02-14T12:52:28;101124.53;;;13.85
82778;BMP280;72510;45.128;20.734;2024-02-14T13:02:30;101116.78;;;13.87
82778;BMP280;72510;45.128;20.734;2024-02-14T13:12:31;101124.84;;;12.79
82778;BMP280;72510;45.128;20.734;2024-02-14T13:22:32;101116.03;;;13.03
82778;BMP280;72510;45.128;20.734;2024-02-14T13:32:36;101117.72;;;15.48
82778;BMP280;72510;45.128;20.734;2024-02-14T13:42:43;101120.16;;;16.20
82778;BMP280;72510;45.128;20.734;2024-02-14T13:52:44;101125.38;;;16.35
82778;BMP280;72510;45.128;20.734;2024-02-14T14:02:45;101120.44;;;17.33
82778;BMP280;72510;45.128;20.734;2024-02-14T14:12:46;101129.00;;;17.03
82778;BMP280;72510;45.128;20.734;2024-02-14T14:22:49;101134.97;;;15.41
82778;BMP280;72510;45.128;20.734;2024-02-14T14:32:50;101137.06;;;17.03
82778;BMP280;72510;45.128;20.734;2024-02-14T14:42:51;101149.72;;;15.77
82778;BMP280;72510;45.128;20.734;2024-02-14T14:52:54;101148.72;;;13.90
82778;BMP280;72510;45.128;20.734;2024-02-14T15:02:56;101154.78;;;12.59
82778;BMP280;72510;45.128;20.734;2024-02-14T15:12:57;101155.03;;;13.19
82778;BMP280;72510;45.128;20.734;2024-02-14T15:22:58;101162.81;;;11.98
82778;BMP280;72510;45.128;20.734;2024-02-14T15:33:01;101175.84;;;12.24
82778;BMP280;72510;45.128;20.734;2024-02-14T15:43:21;101183.63;;;11.57
82778;BMP280;72510;45.128;20.734;2024-02-14T15:53:26;101202.34;;;10.36
82778;BMP280;72510;45.128;20.734;2024-02-14T16:03:31;101196.81;;;8.74
82778;BMP280;72510;45.128;20.734;2024-02-14T16:13:32;101197.09;;;7.92
82778;BMP280;72510;45.128;20.734;2024-02-14T16:23:36;101204.50;;;7.32
82778;BMP280;72510;45.128;20.734;2024-02-14T16:33:37;101199.25;;;6.75
82778;BMP280;72510;45.128;20.734;2024-02-14T16:43:39;101213.09;;;6.63
82778;BMP280;72510;45.128;20.734;2024-02-14T16:53:40;101217.41;;;6.33
82778;BMP280;72510;45.128;20.734;2024-02-14T17:03:42;101222.44;;;6.04
82778;BMP280;72510;45.128;20.734;2024-02-14T17:13:44;101216.66;;;5.86
82778;BMP280;72510;45.128;20.734;2024-02-14T17:23:45;101231.75;;;5.62
82778;BMP280;72510;45.128;20.734;2024-02-14T17:33:48;101235.75;;;5.70
82778;BMP280;72510;45.128;20.734;2024-02-14T17:43:53;101233.88;;;5.70
82778;BMP280;72510;45.128;20.734;2024-02-14T17:53:55;101235.22;;;5.55
82778;BMP280;72510;45.128;20.734;2024-02-14T18:03:56;101235.59;;;5.26
82778;BMP280;72510;45.128;20.734;2024-02-14T18:13:58;101241.50;;;4.65
82778;BMP280;72510;45.128;20.734;2024-02-14T18:23:59;101251.06;;;4.93
82778;BMP280;72510;45.128;20.734;2024-02-14T18:34:01;101243.56;;;4.88
82778;BMP280;72510;45.128;20.734;2024-02-14T18:44:11;101261.69;;;4.83
82778;BMP280;72510;45.128;20.734;2024-02-14T18:54:13;101256.56;;;4.68
82778;BMP280;72510;45.128;20.734;2024-02-14T19:04:17;101266.50;;;4.53
82778;BMP280;72510;45.128;20.734;2024-02-14T19:14:23;101266.25;;;4.41
82778;BMP280;72510;45.128;20.734;2024-02-14T19:24:25;101266.66;;;4.35
82778;BMP280;72510;45.128;20.734;2024-02-14T19:34:27;101266.06;;;4.06
82778;BMP280;72510;45.128;20.734;2024-02-14T19:44:29;101263.31;;;3.57
82778;BMP280;72510;45.128;20.734;2024-02-14T19:54:31;101281.72;;;3.68
82778;BMP280;72510;45.128;20.734;2024-02-14T20:04:34;101282.25;;;3.23
82778;BMP280;72510;45.128;20.734;2024-02-14T20:14:35;101281.50;;;3.12
82778;BMP280;72510;45.128;20.734;2024-02-14T20:24:37;101278.50;;;3.03
82778;BMP280;72510;45.128;20.734;2024-02-14T20:34:39;101290.94;;;2.92
82778;BMP280;72510;45.128;20.734;2024-02-14T20:44:40;101273.28;;;2.89
82778;BMP280;72510;45.128;20.734;2024-02-14T20:54:42;101279.28;;;2.89
82778;BMP280;72510;45.128;20.734;2024-02-14T21:04:44;101269.50;;;2.86
82778;BMP280;72510;45.128;20.734;2024-02-14T21:14:46;101261.25;;;2.80
82778;BMP280;72510;45.128;20.734;2024-02-14T21:24:48;101268.78;;;2.78
82778;BMP280;72510;45.128;20.734;2024-02-14T21:34:50;101260.88;;;2.68
82778;BMP280;72510;45.128;20.734;2024-02-14T21:44:57;101266.53;;;2.66
82778;BMP280;72510;45.128;20.734;2024-02-14T21:54:59;101266.50;;;2.44
82778;BMP280;72510;45.128;20.734;2024-02-14T22:05:01;101270.63;;;2.45
82778;BMP280;72510;45.128;20.734;2024-02-14T22:15:05;101271.00;;;2.44
82778;BMP280;72510;45.128;20.734;2024-02-14T22:25:09;101262.00;;;2.34
82778;BMP280;72510;45.128;20.734;2024-02-14T22:35:12;101247.72;;;2.14
82778;BMP280;72510;45.128;20.734;2024-02-14T22:45:16;101267.91;;;1.99
82778;BMP280;72510;45.128;20.734;2024-02-14T22:55:17;101261.94;;;2.02
82778;BMP280;72510;45.128;20.734;2024-02-14T23:05:18;101253.31;;;2.05
82778;BMP280;72510;45.128;20.734;2024-02-14T23:15:23;101254.06;;;2.09
82778;BMP280;72510;45.128;20.734;2024-02-14T23:25:27;101245.81;;;2.03
82778;BMP280;72510;45.128;20.734;2024-02-14T23:35:32;101241.28;;;2.04
82778;BMP280;72510;45.128;20.734;2024-02-14T23:45:33;101246.91;;;2.06
82778;BMP280;72510;45.128;20.734;2024-02-14T23:55:34;101250.66;;;2.01
